Airport Information

KTMK - Tillamook Airport

KTMK 160815Z AUTO 13004KT 10SM SCT080 BKN100 04/01 A2970 RMK AO2


  • General Information

  • Coordinates: N 45°25'5"/ W 123°48'51"
  • Location: N/A
  • Surveyed Elevation: 36 MSL

Operations

Flow Name Active Runways Conditions

Green background denotes normal operations.


Common Frequencies

Callsign Frequency Position Name

More at the Document Center


Charts